Time;durP1;ratioP1;P1;durP2;ratioP2;P2;SDS_P1;SDS_P2;PMS_P1;PMS_P2;Temp;Humidity;BMP_temperature;BMP_pressure;BME280_temperature;BME280_humidity;BME280_pressure;Samples;Min_cycle;Max_cycle;Signal;HPM_P1;HPM_P2
2024/03/29 00:00:01;;;;;;;1.83;1.50;;;11.10;93.40;;;;;;5012702;28;20896;-59
2024/03/29 00:02:27;;;;;;;2.00;1.40;;;11.20;93.50;;;;;;5014541;28;20357;-58
2024/03/29 00:04:52;;;;;;;1.83;1.70;;;11.00;93.30;;;;;;5015616;28;20521;-58
2024/03/29 00:07:18;;;;;;;1.60;1.60;;;10.80;93.90;;;;;;5014736;28;20659;-59
2024/03/29 00:09:44;;;;;;;2.33;2.00;;;10.90;93.60;;;;;;5015188;28;20186;-58
2024/03/29 00:12:10;;;;;;;2.43;2.13;;;11.00;93.70;;;;;;5015516;28;20175;-58
2024/03/29 00:14:35;;;;;;;2.67;2.23;;;10.90;93.70;;;;;;5013773;28;20794;-58
2024/03/29 00:17:04;;;;;;;4.93;2.47;;;10.90;93.70;;;;;;5015874;28;20178;-58
2024/03/29 00:19:30;;;;;;;4.30;2.43;;;10.80;93.80;;;;;;5014812;28;20184;-59
2024/03/29 00:21:55;;;;;;;3.10;2.73;;;10.90;93.70;;;;;;5015427;28;20455;-58
2024/03/29 00:24:21;;;;;;;2.77;2.53;;;11.00;93.70;;;;;;5015042;28;20185;-59
2024/03/29 00:26:47;;;;;;;3.47;2.30;;;10.90;93.70;;;;;;5014073;28;20231;-58
2024/03/29 00:29:12;;;;;;;3.30;2.97;;;11.00;93.90;;;;;;5015185;28;20247;-60
2024/03/29 00:31:38;;;;;;;3.83;2.93;;;11.00;93.60;;;;;;4996960;28;20534;-59
2024/03/29 00:34:04;;;;;;;3.57;3.20;;;11.00;93.40;;;;;;5015474;28;20425;-59
2024/03/29 00:36:29;;;;;;;3.63;3.27;;;10.90;93.70;;;;;;5014951;28;20575;-59
2024/03/29 00:38:55;;;;;;;4.33;3.30;;;11.00;93.60;;;;;;5014961;28;20714;-58
2024/03/29 00:41:21;;;;;;;5.20;3.90;;;11.00;93.60;;;;;;5011491;28;20210;-59
2024/03/29 00:43:48;;;;;;;3.33;3.10;;;10.90;93.80;;;;;;5015280;28;20199;-58
2024/03/29 00:46:14;;;;;;;3.57;2.90;;;10.80;93.80;;;;;;5014967;28;20207;-58
2024/03/29 00:48:40;;;;;;;4.20;2.93;;;10.80;94.10;;;;;;5014508;28;20792;-58
2024/03/29 00:51:06;;;;;;;2.30;2.20;;;10.70;94.00;;;;;;5014888;28;20211;-58
2024/03/29 00:53:32;;;;;;;5.30;2.50;;;10.70;94.10;;;;;;5014572;28;20453;-58
2024/03/29 00:55:57;;;;;;;2.83;2.60;;;10.60;94.50;;;;;;5013911;28;20201;-58
2024/03/29 00:58:23;;;;;;;2.43;2.00;;;10.60;94.40;;;;;;5014389;28;20175;-59
2024/03/29 01:00:49;;;;;;;2.00;1.60;;;10.60;94.60;;;;;;5013700;28;20669;-59
2024/03/29 01:03:14;;;;;;;2.73;2.07;;;10.70;94.30;;;;;;5014049;28;20218;-59
2024/03/29 01:05:40;;;;;;;4.40;1.83;;;10.80;94.30;;;;;;5014219;28;20684;-59
2024/03/29 01:08:06;;;;;;;3.97;2.80;;;10.70;94.00;;;;;;5014906;28;20218;-59
2024/03/29 01:10:32;;;;;;;3.00;2.63;;;10.80;94.10;;;;;;5014550;28;20520;-58
2024/03/29 01:12:57;;;;;;;2.60;2.40;;;10.90;94.10;;;;;;5013963;28;20421;-58
2024/03/29 01:15:23;;;;;;;7.27;2.43;;;11.00;93.80;;;;;;5013854;28;20179;-58
2024/03/29 01:17:49;;;;;;;4.80;2.83;;;10.90;93.50;;;;;;5014710;28;20178;-59
2024/03/29 01:20:15;;;;;;;3.23;2.83;;;10.90;94.20;;;;;;5014590;28;20183;-59
2024/03/29 01:22:40;;;;;;;4.50;3.80;;;11.00;93.70;;;;;;5012920;28;20184;-58
2024/03/29 01:25:08;;;;;;;5.63;4.10;;;11.10;93.40;;;;;;5014380;28;20186;-58
2024/03/29 01:27:34;;;;;;;5.23;4.17;;;11.10;93.10;;;;;;5013500;28;20183;-57
2024/03/29 01:30:00;;;;;;;5.33;3.80;;;11.10;93.10;;;;;;5014140;28;20488;-59
2024/03/29 01:32:26;;;;;;;5.33;4.80;;;11.10;93.30;;;;;;5013835;28;20184;-59
2024/03/29 01:34:51;;;;;;;5.37;4.43;;;11.00;93.10;;;;;;5013027;28;20766;-58
2024/03/29 01:37:17;;;;;;;5.10;4.60;;;10.90;93.40;;;;;;5013873;28;20472;-59
2024/03/29 01:39:43;;;;;;;6.83;6.10;;;11.00;93.40;;;;;;5013630;28;20234;-59
2024/03/29 01:42:09;;;;;;;6.03;5.23;;;11.10;93.10;;;;;;5014260;28;20628;-59
2024/03/29 01:44:36;;;;;;;8.73;5.60;;;11.20;92.80;;;;;;5013589;28;20173;-59
2024/03/29 01:47:02;;;;;;;6.67;5.50;;;11.30;92.60;;;;;;5013674;28;20203;-59
2024/03/29 01:49:30;;;;;;;6.53;5.20;;;11.30;92.60;;;;;;5012941;28;20860;-59
2024/03/29 01:51:56;;;;;;;7.90;5.50;;;11.40;92.50;;;;;;5013707;28;20170;-59
2024/03/29 01:54:21;;;;;;;6.97;5.87;;;11.30;92.30;;;;;;5012574;28;20427;-59
2024/03/29 01:56:48;;;;;;;6.43;5.50;;;11.20;92.70;;;;;;5013364;28;20418;-59
2024/03/29 01:59:16;;;;;;;6.20;4.77;;;11.20;92.40;;;;;;5013674;28;20429;-58
2024/03/29 02:01:42;;;;;;;8.17;4.73;;;11.10;92.40;;;;;;5012721;28;20572;-58
2024/03/29 02:04:09;;;;;;;4.20;3.10;;;11.20;92.60;;;;;;5013319;28;20481;-58
2024/03/29 02:06:37;;;;;;;7.13;3.83;;;11.00;92.20;;;;;;5012723;28;20453;-58
2024/03/29 02:09:03;;;;;;;6.10;3.40;;;11.00;92.60;;;;;;4994049;28;20439;-58
2024/03/29 02:11:29;;;;;;;3.20;2.70;;;11.10;92.60;;;;;;5011656;28;20422;-59
2024/03/29 02:13:55;;;;;;;5.20;3.00;;;11.10;92.40;;;;;;5013276;28;20473;-59
2024/03/29 02:16:21;;;;;;;2.73;2.43;;;11.20;92.40;;;;;;5012926;28;20250;-58
2024/03/29 02:18:47;;;;;;;5.90;2.70;;;11.20;92.70;;;;;;5010875;28;20433;-59
2024/03/29 02:21:12;;;;;;;3.70;1.87;;;11.30;92.30;;;;;;5011825;28;20284;-58
2024/03/29 02:23:46;;;;;;;2.27;2.07;;;11.30;91.90;;;;;;5012237;28;20223;-58
2024/03/29 02:26:12;;;;;;;2.40;1.80;;;11.40;92.30;;;;;;5012343;28;20210;-58
2024/03/29 02:28:38;;;;;;;1.40;1.40;;;11.30;92.10;;;;;;5012554;28;20420;-58
2024/03/29 02:31:05;;;;;;;1.60;1.50;;;11.20;92.20;;;;;;5012925;28;20479;-58
2024/03/29 02:33:30;;;;;;;1.87;1.77;;;11.40;92.30;;;;;;5011051;28;20235;-59
2024/03/29 02:35:56;;;;;;;1.67;1.50;;;11.30;92.20;;;;;;5012804;28;20432;-58
2024/03/29 02:38:22;;;;;;;1.80;1.20;;;11.30;92.20;;;;;;5012872;28;20599;-58
2024/03/29 02:40:48;;;;;;;2.77;1.80;;;11.10;91.90;;;;;;5012392;28;20426;-58
2024/03/29 02:43:13;;;;;;;1.77;1.67;;;11.20;92.10;;;;;;5012737;28;20188;-59
2024/03/29 02:45:39;;;;;;;1.70;1.60;;;11.30;92.20;;;;;;5012074;28;20220;-59
2024/03/29 02:48:05;;;;;;;1.47;1.37;;;11.30;92.00;;;;;;5011891;28;20221;-58
2024/03/29 02:50:31;;;;;;;1.93;1.83;;;11.40;92.20;;;;;;5012089;28;20179;-59
2024/03/29 02:52:57;;;;;;;2.30;1.60;;;11.60;92.10;;;;;;5012898;28;20419;-59
2024/03/29 02:55:23;;;;;;;1.90;1.80;;;11.70;92.40;;;;;;5012445;28;20421;-58
2024/03/29 02:57:49;;;;;;;1.40;1.40;;;11.70;92.30;;;;;;5011997;28;20423;-59
2024/03/29 03:00:15;;;;;;;1.40;1.30;;;11.80;92.20;;;;;;5012617;28;20176;-59
2024/03/29 03:02:41;;;;;;;1.50;1.40;;;11.80;92.10;;;;;;5011932;28;20228;-59
2024/03/29 03:05:07;;;;;;;1.87;1.50;;;11.80;91.60;;;;;;5012471;28;20433;-58
2024/03/29 03:13:03;;;;;;;1.03;1.03;;;11.60;91.90;;;;;;5012500;28;20463;-58
2024/03/29 03:15:29;;;;;;;1.30;1.20;;;11.50;91.90;;;;;;5012016;28;20890;-59
2024/03/29 03:17:55;;;;;;;1.30;1.20;;;11.60;92.00;;;;;;5011284;28;20481;-58
2024/03/29 03:20:22;;;;;;;1.70;1.60;;;11.70;92.50;;;;;;5027949;28;20545;-58
2024/03/29 03:22:50;;;;;;;1.40;1.30;;;11.60;93.10;;;;;;5012159;28;20421;-58
2024/03/29 03:25:16;;;;;;;3.17;1.30;;;11.60;93.80;;;;;;5012665;28;20415;-59
2024/03/29 03:27:42;;;;;;;1.40;1.30;;;11.80;94.40;;;;;;5012105;28;20428;-58
2024/03/29 03:30:08;;;;;;;2.83;1.23;;;11.90;94.30;;;;;;5012703;28;20177;-59
2024/03/29 03:32:34;;;;;;;1.33;1.20;;;12.00;94.70;;;;;;5011548;28;20220;-59
2024/03/29 03:34:59;;;;;;;1.40;1.30;;;12.10;95.10;;;;;;5013524;28;20463;-59
2024/03/29 03:37:25;;;;;;;1.67;1.30;;;12.10;94.90;;;;;;5016405;28;20269;-59
2024/03/29 03:39:51;;;;;;;1.33;1.33;;;12.10;95.00;;;;;;5015798;28;20189;-59
2024/03/29 03:42:16;;;;;;;1.37;1.27;;;12.10;95.30;;;;;;5016452;28;20169;-59
2024/03/29 03:44:42;;;;;;;2.60;1.60;;;12.20;95.20;;;;;;5015227;28;20185;-59
2024/03/29 03:47:08;;;;;;;1.63;1.53;;;12.20;95.20;;;;;;5015503;28;20216;-58
2024/03/29 03:49:34;;;;;;;1.53;1.43;;;12.30;95.20;;;;;;5015621;28;20192;-59
2024/03/29 03:51:59;;;;;;;1.60;1.50;;;12.30;95.20;;;;;;5016051;28;20404;-59
2024/03/29 03:54:25;;;;;;;1.70;1.60;;;12.30;95.30;;;;;;5016102;28;20520;-59
2024/03/29 03:56:51;;;;;;;1.60;1.50;;;12.40;95.60;;;;;;5015623;28;20218;-59
2024/03/29 03:59:16;;;;;;;2.50;1.70;;;12.40;97.50;;;;;;5015158;28;20693;-59
2024/03/29 04:01:42;;;;;;;1.50;1.40;;;12.40;98.80;;;;;;5014709;28;20182;-59
2024/03/29 04:04:09;;;;;;;1.63;1.40;;;12.40;98.60;;;;;;5016023;28;20617;-59
2024/03/29 04:06:35;;;;;;;1.60;1.50;;;12.20;97.70;;;;;;5014926;28;20225;-59
2024/03/29 04:09:00;;;;;;;2.57;1.40;;;12.30;99.20;;;;;;5015502;28;20429;-59
2024/03/29 04:11:27;;;;;;;4.93;1.40;;;12.30;99.80;;;;;;5014761;28;20437;-59
2024/03/29 04:13:52;;;;;;;1.20;1.20;;;12.30;99.00;;;;;;5015045;28;20181;-59
2024/03/29 04:16:18;;;;;;;3.03;1.40;;;12.30;98.10;;;;;;5015698;28;20425;-59
2024/03/29 04:18:44;;;;;;;1.50;1.40;;;12.30;98.40;;;;;;5014167;28;20188;-59
2024/03/29 04:21:09;;;;;;;1.97;1.30;;;12.30;97.60;;;;;;5015768;28;20539;-59
2024/03/29 04:23:37;;;;;;;1.60;1.50;;;12.30;97.60;;;;;;4997163;28;20174;-59
2024/03/29 04:26:02;;;;;;;1.97;1.30;;;12.30;97.80;;;;;;5015535;28;20209;-59
2024/03/29 04:28:28;;;;;;;1.40;1.40;;;12.30;98.00;;;;;;5015289;28;20427;-58
2024/03/29 04:30:59;;;;;;;1.40;1.30;;;12.30;98.20;;;;;;5014998;28;20210;-59
2024/03/29 04:33:25;;;;;;;2.70;1.53;;;12.10;98.70;;;;;;5015202;28;20265;-58
2024/03/29 04:36:04;;;;;;;4.93;1.47;;;12.10;98.90;;;;;;5014438;28;21446;-58
2024/03/29 04:38:30;;;;;;;3.60;1.57;;;12.00;99.90;;;;;;5013882;28;20430;-59
2024/03/29 04:40:57;;;;;;;2.03;1.50;;;12.00;99.90;;;;;;5015368;28;20411;-59
2024/03/29 04:43:28;;;;;;;1.63;1.53;;;12.00;99.90;;;;;;5015162;28;20404;-59
2024/03/29 04:46:11;;;;;;;1.80;1.30;;;12.10;99.90;;;;;;5014229;28;20454;-59
2024/03/29 04:48:38;;;;;;;1.73;1.43;;;12.00;99.90;;;;;;5010927;28;20838;-59
2024/03/29 04:51:04;;;;;;;1.77;1.60;;;12.00;99.90;;;;;;5015185;28;20403;-59
2024/03/29 04:53:30;;;;;;;2.40;2.20;;;12.00;99.90;;;;;;5015261;28;20494;-58
2024/03/29 04:55:57;;;;;;;2.63;2.10;;;12.00;99.90;;;;;;5014536;28;20412;-59
2024/03/29 04:58:23;;;;;;;3.03;2.40;;;12.10;99.90;;;;;;5015305;28;20507;-59
2024/03/29 05:00:49;;;;;;;2.97;2.33;;;12.00;99.90;;;;;;5013960;28;20414;-59
2024/03/29 05:03:18;;;;;;;3.70;2.70;;;12.00;99.90;;;;;;5014371;28;20689;-58
2024/03/29 05:05:44;;;;;;;3.30;2.97;;;12.00;99.90;;;;;;5013996;28;20817;-59
2024/03/29 05:08:10;;;;;;;2.80;2.60;;;12.00;99.90;;;;;;5014652;28;20885;-58
2024/03/29 05:10:35;;;;;;;2.60;2.40;;;12.00;99.90;;;;;;5013970;28;20409;-58
2024/03/29 05:13:01;;;;;;;3.67;2.17;;;12.00;99.90;;;;;;5014464;28;20181;-59
2024/03/29 05:15:27;;;;;;;2.10;2.00;;;12.00;99.90;;;;;;5014234;28;20185;-59
2024/03/29 05:17:53;;;;;;;2.30;2.20;;;12.00;99.90;;;;;;5013411;28;21139;-58
2024/03/29 05:20:19;;;;;;;6.10;2.53;;;11.90;99.90;;;;;;5014322;28;20177;-59
2024/03/29 05:22:45;;;;;;;2.37;2.20;;;11.90;99.90;;;;;;5014069;28;20578;-59
2024/03/29 05:25:11;;;;;;;3.83;2.33;;;11.90;99.90;;;;;;5014686;28;20414;-58
2024/03/29 05:27:36;;;;;;;2.60;2.40;;;11.90;99.90;;;;;;5013848;28;20215;-59
2024/03/29 05:30:03;;;;;;;2.40;2.30;;;11.90;99.90;;;;;;5014432;28;20186;-59
2024/03/29 05:32:30;;;;;;;2.60;2.40;;;11.80;99.90;;;;;;5013179;28;20683;-59
2024/03/29 05:34:56;;;;;;;2.90;2.60;;;11.80;99.90;;;;;;5012234;28;20422;-58
2024/03/29 05:37:24;;;;;;;2.23;2.13;;;11.80;99.90;;;;;;5014191;28;20429;-58
2024/03/29 05:39:58;;;;;;;3.17;2.47;;;11.80;99.90;;;;;;5013674;28;20427;-59
2024/03/29 05:42:26;;;;;;;2.67;2.47;;;11.80;99.90;;;;;;5013997;28;20407;-58
2024/03/29 05:44:51;;;;;;;3.10;2.80;;;11.70;99.90;;;;;;5013613;28;20415;-59
2024/03/29 05:47:17;;;;;;;3.70;2.57;;;11.70;99.90;;;;;;5012677;28;20466;-59
2024/03/29 05:49:43;;;;;;;3.40;3.10;;;11.70;99.90;;;;;;5013543;28;20271;-59
2024/03/29 05:52:08;;;;;;;3.10;2.90;;;11.70;99.90;;;;;;5013699;28;20265;-59
2024/03/29 05:54:34;;;;;;;4.50;3.40;;;11.60;99.90;;;;;;5013777;28;20175;-59
2024/03/29 05:57:00;;;;;;;4.80;4.40;;;11.60;99.90;;;;;;5012737;28;20197;-59
2024/03/29 05:59:25;;;;;;;5.83;4.07;;;11.50;99.90;;;;;;5013793;28;20526;-59
2024/03/29 06:01:51;;;;;;;3.73;3.40;;;11.40;99.90;;;;;;5012687;28;20218;-59
2024/03/29 06:04:19;;;;;;;3.53;3.30;;;11.40;99.90;;;;;;5013974;28;20178;-59
2024/03/29 06:06:45;;;;;;;4.27;3.87;;;11.40;99.90;;;;;;5011961;28;20302;-59
2024/03/29 06:09:11;;;;;;;4.13;3.73;;;11.40;99.90;;;;;;5012332;28;20738;-59
2024/03/29 06:11:38;;;;;;;5.00;4.50;;;11.40;99.90;;;;;;5013515;28;20550;-59
2024/03/29 06:19:15;;;;;;;3.03;2.93;;;10.90;99.90;;;;;;5012971;28;20632;-59
2024/03/29 06:21:42;;;;;;;3.60;3.30;;;11.00;99.90;;;;;;5011606;28;20416;-59
2024/03/29 06:24:16;;;;;;;3.07;2.87;;;11.10;99.90;;;;;;5013457;28;20764;-59
2024/03/29 06:26:42;;;;;;;2.97;2.77;;;11.20;99.90;;;;;;5012859;28;20446;-59
2024/03/29 06:29:10;;;;;;;4.33;3.93;;;11.00;99.90;;;;;;5013080;28;20425;-59
2024/03/29 06:31:36;;;;;;;4.30;3.67;;;11.10;99.90;;;;;;5013325;28;20175;-58
2024/03/29 06:34:02;;;;;;;6.77;4.47;;;11.10;99.90;;;;;;5012770;28;20424;-59
2024/03/29 06:36:30;;;;;;;4.77;3.40;;;11.20;99.90;;;;;;5012854;28;20241;-59
2024/03/29 06:38:56;;;;;;;3.37;3.07;;;11.30;99.90;;;;;;5011775;28;20188;-59
2024/03/29 06:41:22;;;;;;;3.53;3.10;;;11.30;99.90;;;;;;5012877;28;20780;-58
2024/03/29 06:43:47;;;;;;;2.40;2.30;;;11.40;99.90;;;;;;5012401;28;20916;-59
2024/03/29 06:46:15;;;;;;;5.53;3.17;;;11.20;99.90;;;;;;5013044;28;20464;-58
2024/03/29 06:48:41;;;;;;;3.30;3.10;;;11.10;99.90;;;;;;5009566;28;22153;-59
2024/03/29 06:51:06;;;;;;;3.47;3.20;;;11.10;99.90;;;;;;5012239;28;20415;-57
2024/03/29 06:53:32;;;;;;;3.43;3.20;;;11.10;99.90;;;;;;5011958;28;20418;-56
2024/03/29 06:56:01;;;;;;;2.90;2.80;;;11.20;99.90;;;;;;5007032;28;20210;-57
2024/03/29 06:58:26;;;;;;;4.40;3.03;;;11.20;99.90;;;;;;4993356;28;20167;-57
2024/03/29 07:00:52;;;;;;;3.50;3.30;;;11.10;99.90;;;;;;4992748;28;20411;-57
2024/03/29 07:03:18;;;;;;;3.27;3.07;;;10.90;99.90;;;;;;4993244;28;20706;-57
2024/03/29 07:05:46;;;;;;;3.70;3.40;;;10.80;99.90;;;;;;5001385;28;20496;-57
2024/03/29 07:08:11;;;;;;;2.93;2.67;;;10.90;99.90;;;;;;5011127;28;20428;-57
2024/03/29 07:10:37;;;;;;;2.90;2.70;;;10.90;99.90;;;;;;5011226;28;20418;-57
2024/03/29 07:13:03;;;;;;;3.30;2.60;;;10.70;99.90;;;;;;5011429;28;20899;-59
2024/03/29 07:15:29;;;;;;;2.97;2.70;;;10.70;99.90;;;;;;5011776;28;20175;-59
2024/03/29 07:17:56;;;;;;;2.47;2.37;;;10.80;99.90;;;;;;4999218;28;20233;-59
2024/03/29 07:20:21;;;;;;;2.87;2.67;;;10.70;99.90;;;;;;5012634;28;20175;-58
2024/03/29 07:22:47;;;;;;;2.80;2.70;;;10.80;99.90;;;;;;5012251;28;20453;-59
2024/03/29 07:25:13;;;;;;;2.97;2.70;;;11.00;99.90;;;;;;5000305;28;20657;-59
2024/03/29 07:27:38;;;;;;;3.67;2.60;;;11.10;99.90;;;;;;5011000;28;20561;-58
2024/03/29 07:30:07;;;;;;;2.80;2.70;;;11.10;99.90;;;;;;5008017;28;20264;-59
2024/03/29 07:32:33;;;;;;;3.00;2.90;;;11.20;99.90;;;;;;4989169;28;20516;-59
2024/03/29 07:34:59;;;;;;;2.80;2.60;;;11.30;99.90;;;;;;4996162;28;20527;-59
2024/03/29 07:37:25;;;;;;;2.83;2.63;;;11.50;99.90;;;;;;4993095;28;20308;-59
2024/03/29 07:39:51;;;;;;;3.07;2.83;;;11.50;99.90;;;;;;5005863;28;20437;-59
2024/03/29 07:42:17;;;;;;;3.37;2.60;;;11.50;99.90;;;;;;4995268;28;20933;-59
2024/03/29 07:44:43;;;;;;;2.90;2.77;;;11.50;99.90;;;;;;4992281;28;20572;-59
2024/03/29 07:47:09;;;;;;;2.77;2.60;;;11.60;99.90;;;;;;4992804;28;20457;-59
2024/03/29 07:49:35;;;;;;;2.80;2.70;;;11.70;99.90;;;;;;5003441;28;20436;-58
2024/03/29 07:52:05;;;;;;;3.07;2.90;;;11.70;99.90;;;;;;5007530;28;20188;-59
2024/03/29 07:54:31;;;;;;;3.40;3.20;;;11.80;99.90;;;;;;5011185;28;20457;-59
2024/03/29 07:56:57;;;;;;;3.10;2.90;;;11.70;99.90;;;;;;5011911;28;20425;-59
2024/03/29 07:59:23;;;;;;;3.43;3.20;;;11.80;99.90;;;;;;5012455;28;20419;-58
2024/03/29 08:01:48;;;;;;;3.47;3.23;;;11.80;99.90;;;;;;5011275;28;20254;-59
2024/03/29 08:04:14;;;;;;;2.50;2.40;;;11.80;99.90;;;;;;5011322;28;20165;-59
2024/03/29 08:06:40;;;;;;;2.63;2.53;;;11.70;99.90;;;;;;5012264;28;20207;-59
2024/03/29 08:09:06;;;;;;;2.30;2.20;;;11.70;99.90;;;;;;5011363;28;20190;-59
2024/03/29 08:11:31;;;;;;;2.70;2.60;;;11.50;99.90;;;;;;5011052;28;20189;-59
2024/03/29 08:13:58;;;;;;;3.00;2.90;;;11.60;99.90;;;;;;5004739;28;20433;-58
2024/03/29 08:16:23;;;;;;;2.90;2.77;;;11.70;99.90;;;;;;5012074;28;20771;-58
2024/03/29 08:18:49;;;;;;;2.93;2.73;;;11.80;99.90;;;;;;5011675;28;20228;-58
2024/03/29 08:21:15;;;;;;;3.53;3.17;;;11.90;99.90;;;;;;5012063;28;20192;-59
2024/03/29 08:23:41;;;;;;;3.83;3.57;;;12.00;99.90;;;;;;5015366;28;20188;-59
2024/03/29 08:26:07;;;;;;;3.17;3.07;;;12.00;99.90;;;;;;5012357;28;20212;-59
2024/03/29 08:28:35;;;;;;;2.90;2.70;;;12.00;99.90;;;;;;5015140;28;20424;-59
2024/03/29 08:31:05;;;;;;;2.80;2.60;;;12.00;99.90;;;;;;5004976;28;20780;-59
2024/03/29 08:33:31;;;;;;;2.30;2.20;;;12.10;99.90;;;;;;5014530;28;20460;-59
2024/03/29 08:35:57;;;;;;;2.80;2.60;;;12.20;99.90;;;;;;5002951;28;20440;-59
2024/03/29 08:38:23;;;;;;;3.03;2.43;;;12.20;99.90;;;;;;5008611;28;20786;-59
2024/03/29 08:40:49;;;;;;;2.73;2.50;;;12.40;99.90;;;;;;5014627;28;20431;-59
2024/03/29 08:43:17;;;;;;;2.43;2.30;;;12.30;99.90;;;;;;5014735;28;20414;-59
2024/03/29 08:45:44;;;;;;;2.70;2.50;;;12.30;99.90;;;;;;5013644;28;20476;-59
2024/03/29 08:48:10;;;;;;;2.60;2.50;;;12.20;99.90;;;;;;5013480;28;20456;-59
2024/03/29 08:50:36;;;;;;;2.30;2.20;;;12.30;99.90;;;;;;5014294;28;20455;-59
2024/03/29 08:53:03;;;;;;;2.50;2.30;;;12.50;99.90;;;;;;5013622;28;20432;-59
2024/03/29 08:55:30;;;;;;;2.40;2.20;;;12.60;99.90;;;;;;5014398;28;20816;-59
2024/03/29 08:57:59;;;;;;;2.17;2.07;;;12.40;99.90;;;;;;5011743;28;20426;-59
2024/03/29 09:00:26;;;;;;;2.30;2.20;;;12.40;99.90;;;;;;5011525;28;20501;-59
2024/03/29 09:02:52;;;;;;;2.70;2.33;;;12.40;99.90;;;;;;5006699;28;20897;-59
2024/03/29 09:05:18;;;;;;;2.43;2.33;;;12.40;99.90;;;;;;5009717;28;20440;-59
2024/03/29 09:07:45;;;;;;;2.77;2.67;;;12.40;99.90;;;;;;5012649;28;21076;-59
2024/03/29 09:10:11;;;;;;;2.20;2.20;;;12.40;99.90;;;;;;5014032;28;20846;-59
2024/03/29 09:12:37;;;;;;;2.30;2.20;;;12.40;99.90;;;;;;5013533;28;20503;-59
2024/03/29 09:15:08;;;;;;;2.40;2.30;;;12.50;99.90;;;;;;5010352;28;20955;-59
2024/03/29 09:17:35;;;;;;;2.60;2.50;;;12.60;99.90;;;;;;5014787;28;20425;-59
2024/03/29 09:20:01;;;;;;;2.30;2.20;;;12.80;99.90;;;;;;5014061;28;20424;-59
2024/03/29 09:22:26;;;;;;;2.10;2.00;;;12.80;99.90;;;;;;5013372;28;20434;-59
2024/03/29 09:24:52;;;;;;;2.60;2.40;;;12.90;99.90;;;;;;5014003;28;20214;-59
2024/03/29 09:27:18;;;;;;;2.33;2.23;;;13.10;99.90;;;;;;5014438;28;20234;-59
2024/03/29 09:29:48;;;;;;;2.37;2.27;;;13.00;99.90;;;;;;5014307;28;20178;-59
2024/03/29 09:32:17;;;;;;;2.40;2.30;;;13.00;99.90;;;;;;4999781;28;20182;-59
2024/03/29 09:34:44;;;;;;;2.50;2.30;;;13.00;99.90;;;;;;5013797;28;20417;-58
2024/03/29 09:37:10;;;;;;;36.70;21.20;;;13.10;99.90;;;;;;5013283;28;20458;-59
2024/03/29 09:39:35;;;;;;;26.67;20.77;;;13.10;99.90;;;;;;5013787;28;20436;-59
2024/03/29 09:42:03;;;;;;;3.93;3.60;;;13.10;99.90;;;;;;5013735;28;20406;-60
2024/03/29 09:44:36;;;;;;;2.37;2.27;;;13.30;99.90;;;;;;5014102;28;20630;-58
2024/03/29 09:47:03;;;;;;;2.40;2.30;;;13.40;99.90;;;;;;5012710;28;20447;-60
2024/03/29 09:49:34;;;;;;;2.43;2.33;;;13.30;99.90;;;;;;5012484;28;20515;-58
2024/03/29 09:52:00;;;;;;;2.40;2.30;;;13.30;99.90;;;;;;5013498;28;20407;-60
2024/03/29 09:54:29;;;;;;;2.30;2.10;;;13.30;99.90;;;;;;5013937;28;20429;-60
2024/03/29 09:56:57;;;;;;;3.00;2.40;;;13.00;99.90;;;;;;5013456;28;20406;-60
2024/03/29 09:59:23;;;;;;;2.40;2.30;;;13.00;99.90;;;;;;5013704;28;20436;-60
2024/03/29 10:01:50;;;;;;;3.30;3.20;;;13.20;99.90;;;;;;5013335;28;20484;-60
2024/03/29 10:04:17;;;;;;;3.00;2.90;;;13.40;99.90;;;;;;5013404;28;20473;-59
2024/03/29 10:06:49;;;;;;;3.23;3.13;;;13.40;99.90;;;;;;5012125;28;20805;-59
2024/03/29 10:09:18;;;;;;;3.27;3.17;;;13.50;99.90;;;;;;5013500;28;20400;-59
2024/03/29 10:11:44;;;;;;;3.30;3.20;;;13.70;99.90;;;;;;5013657;28;20416;-59
2024/03/29 10:14:10;;;;;;;2.80;2.73;;;14.00;99.90;;;;;;5012659;28;20536;-59
2024/03/29 10:16:36;;;;;;;3.77;2.90;;;14.10;99.90;;;;;;5013486;28;20836;-59
2024/03/29 10:19:03;;;;;;;1.80;1.70;;;14.20;99.90;;;;;;5005740;28;20456;-59
2024/03/29 10:21:28;;;;;;;2.83;1.77;;;14.00;99.90;;;;;;4994369;28;20440;-59
2024/03/29 10:23:54;;;;;;;1.50;1.50;;;14.10;99.90;;;;;;4993033;28;20405;-58
2024/03/29 10:26:23;;;;;;;1.93;1.93;;;14.00;99.90;;;;;;4993837;28;20236;-59
2024/03/29 10:28:49;;;;;;;1.80;1.70;;;13.90;99.90;;;;;;4993891;28;20195;-59
2024/03/29 10:31:15;;;;;;;2.40;2.20;;;13.90;99.90;;;;;;4993252;28;20898;-59
2024/03/29 10:33:44;;;;;;;2.10;1.90;;;14.00;99.90;;;;;;4997550;28;20418;-58
2024/03/29 10:36:12;;;;;;;1.73;1.63;;;13.90;99.90;;;;;;5012387;28;20422;-58
2024/03/29 10:38:38;;;;;;;1.73;1.63;;;14.10;99.90;;;;;;5013082;28;20503;-58
2024/03/29 10:41:06;;;;;;;96.40;70.77;;;14.00;99.90;;;;;;5011748;28;20427;-59
2024/03/29 10:43:33;;;;;;;34.00;26.03;;;14.20;99.90;;;;;;4995844;28;20429;-58
2024/03/29 10:46:04;;;;;;;2.00;1.90;;;14.40;99.90;;;;;;5010108;28;20460;-59
2024/03/29 10:48:32;;;;;;;1.80;1.70;;;14.50;99.90;;;;;;5012606;28;20432;-58
2024/03/29 10:50:59;;;;;;;1.67;1.67;;;14.50;99.90;;;;;;5010508;28;20432;-58
2024/03/29 10:53:27;;;;;;;1.80;1.70;;;14.50;99.90;;;;;;5010716;28;20408;-59
2024/03/29 10:56:00;;;;;;;1.63;1.63;;;14.50;99.90;;;;;;5010128;28;20443;-59
2024/03/29 10:58:33;;;;;;;1.57;1.57;;;14.60;99.90;;;;;;5012451;28;20479;-58
2024/03/29 11:01:00;;;;;;;1.70;1.60;;;14.60;99.90;;;;;;5010612;28;20402;-59
2024/03/29 11:03:38;;;;;;;1.60;1.50;;;14.60;99.90;;;;;;5012589;28;20566;-59
2024/03/29 11:06:05;;;;;;;2.10;1.90;;;14.70;99.90;;;;;;5011467;28;20445;-59
2024/03/29 11:08:37;;;;;;;1.97;1.90;;;14.70;99.90;;;;;;5012018;28;20914;-59
2024/03/29 11:11:05;;;;;;;1.77;1.70;;;14.80;99.90;;;;;;5012030;28;20405;-59
2024/03/29 11:13:52;;;;;;;1.90;1.90;;;14.80;99.90;;;;;;5012250;28;20420;-59
2024/03/29 11:16:21;;;;;;;2.27;2.17;;;15.00;99.90;;;;;;5012747;28;20817;-58
2024/03/29 11:18:48;;;;;;;1.50;1.40;;;15.10;99.90;;;;;;5012779;28;20473;-59
2024/03/29 11:21:18;;;;;;;1.70;1.70;;;15.00;99.90;;;;;;5012162;28;20413;-59
2024/03/29 11:23:52;;;;;;;117.87;76.40;;;15.10;99.90;;;;;;5012435;28;20424;-58
2024/03/29 11:26:18;;;;;;;82.83;55.17;;;15.00;99.90;;;;;;5011852;28;20450;-58
2024/03/29 11:28:51;;;;;;;2.30;2.20;;;15.10;99.90;;;;;;5012647;28;20472;-59
2024/03/29 11:31:17;;;;;;;1.80;1.70;;;15.00;99.90;;;;;;5007693;28;20445;-59
2024/03/29 11:33:44;;;;;;;1.70;1.60;;;15.20;99.90;;;;;;5007974;28;20464;-59
2024/03/29 11:36:24;;;;;;;1.73;1.70;;;15.30;99.90;;;;;;5012183;28;20426;-59
2024/03/29 11:38:52;;;;;;;1.77;1.77;;;15.40;99.90;;;;;;5010799;28;20896;-59
2024/03/29 11:41:21;;;;;;;1.93;1.90;;;15.40;99.90;;;;;;5006802;28;20503;-59
2024/03/29 11:43:47;;;;;;;1.77;1.77;;;15.40;99.90;;;;;;5012376;28;20525;-59
2024/03/29 11:46:15;;;;;;;1.83;1.73;;;15.40;99.90;;;;;;5011185;28;20537;-59
2024/03/29 11:48:41;;;;;;;1.80;1.70;;;15.30;99.90;;;;;;5012339;28;20179;-58
2024/03/29 11:51:10;;;;;;;2.53;2.33;;;15.30;99.90;;;;;;5011355;28;20487;-59
2024/03/29 11:53:36;;;;;;;2.03;1.93;;;15.20;99.90;;;;;;5012525;28;20417;-59
2024/03/29 11:56:03;;;;;;;2.07;2.00;;;15.20;99.90;;;;;;5011960;28;20420;-59
2024/03/29 11:58:30;;;;;;;2.00;1.90;;;15.30;99.90;;;;;;5016181;28;20190;-59
2024/03/29 12:00:57;;;;;;;1.90;1.90;;;15.20;99.90;;;;;;5015137;28;20514;-59
2024/03/29 12:03:31;;;;;;;2.40;2.30;;;15.10;99.90;;;;;;5016122;28;20460;-59
2024/03/29 12:06:01;;;;;;;2.10;2.10;;;15.00;99.90;;;;;;5015335;28;20585;-59
2024/03/29 12:08:28;;;;;;;2.03;1.80;;;15.10;99.90;;;;;;5015644;28;20424;-59
2024/03/29 12:10:54;;;;;;;2.13;2.13;;;15.20;99.90;;;;;;5016013;28;20432;-59
2024/03/29 12:13:20;;;;;;;1.60;1.60;;;15.20;99.90;;;;;;5014923;28;20424;-59
2024/03/29 12:15:46;;;;;;;2.23;2.10;;;15.20;99.90;;;;;;5016290;28;20198;-59
2024/03/29 12:18:12;;;;;;;1.90;1.90;;;15.30;99.90;;;;;;5015185;28;20185;-59
2024/03/29 12:20:41;;;;;;;2.07;1.90;;;15.20;99.90;;;;;;5015851;28;20182;-59
2024/03/29 12:23:09;;;;;;;2.20;2.10;;;15.40;99.90;;;;;;5014480;28;20414;-59
2024/03/29 12:25:37;;;;;;;2.50;2.40;;;15.40;99.90;;;;;;4997892;28;20928;-59
2024/03/29 12:28:04;;;;;;;2.40;2.23;;;15.50;99.90;;;;;;4995475;28;20444;-59
2024/03/29 12:30:30;;;;;;;2.10;2.00;;;15.50;99.90;;;;;;5014162;28;20417;-58
2024/03/29 12:33:06;;;;;;;2.87;2.73;;;15.40;99.90;;;;;;5015289;28;20415;-59
2024/03/29 12:35:33;;;;;;;2.27;2.20;;;15.20;99.90;;;;;;5010812;28;20441;-59
2024/03/29 12:38:01;;;;;;;2.20;2.20;;;15.20;99.90;;;;;;5011714;28;20453;-59
2024/03/29 12:40:29;;;;;;;3.47;3.27;;;15.10;99.90;;;;;;5012935;28;20898;-59
2024/03/29 12:42:57;;;;;;;3.87;3.57;;;15.10;99.90;;;;;;5012238;28;20921;-58
2024/03/29 12:45:25;;;;;;;1.90;1.80;;;15.10;99.90;;;;;;5013941;28;20425;-59
2024/03/29 12:47:51;;;;;;;1.90;1.70;;;15.10;99.90;;;;;;5010801;28;20525;-59
2024/03/29 12:50:29;;;;;;;1.70;1.60;;;15.00;99.90;;;;;;4998834;28;20829;-58
2024/03/29 12:52:58;;;;;;;1.87;1.80;;;14.90;99.90;;;;;;5012691;28;20220;-59